Time;durP1;ratioP1;P1;durP2;ratioP2;P2;SDS_P1;SDS_P2;PMS_P1;PMS_P2;Temp;Humidity;BMP_temperature;BMP_pressure;BME280_temperature;BME280_humidity;BME280_pressure;Samples;Min_cycle;Max_cycle;Signal;HPM_P1;HPM_P2
2022/01/29 00:01:28;;;;;;;13.43;7.72;;;5.40;99.90;;;;;;6069641;23;20060;-87
2022/01/29 00:03:54;;;;;;;26.00;11.45;;;5.40;99.90;;;;;;6120322;23;20009;-88
2022/01/29 00:06:19;;;;;;;13.88;6.80;;;5.40;99.90;;;;;;6095272;23;20063;-87
2022/01/29 00:08:45;;;;;;;22.10;9.55;;;5.40;99.90;;;;;;6094970;23;20084;-87
2022/01/29 00:11:14;;;;;;;21.55;11.35;;;5.40;99.90;;;;;;6094328;23;20211;-88
2022/01/29 00:13:39;;;;;;;32.88;10.00;;;5.40;99.90;;;;;;6096266;23;20025;-88
2022/01/29 00:16:05;;;;;;;22.27;8.05;;;5.40;99.90;;;;;;6095797;23;20010;-88
2022/01/29 00:18:30;;;;;;;23.13;11.90;;;5.40;99.90;;;;;;6092755;23;20339;-88
2022/01/29 00:20:56;;;;;;;21.58;8.40;;;5.40;99.90;;;;;;6093803;23;20025;-87
2022/01/29 00:23:22;;;;;;;18.42;9.50;;;5.50;99.90;;;;;;6095191;23;20013;-87
2022/01/29 00:25:47;;;;;;;26.90;13.20;;;5.40;99.90;;;;;;6094155;23;20023;-87
2022/01/29 00:28:14;;;;;;;19.65;10.48;;;5.40;99.90;;;;;;6072328;23;20037;-88
2022/01/29 00:30:42;;;;;;;19.60;9.25;;;5.50;99.90;;;;;;6071691;23;20037;-88
2022/01/29 00:33:11;;;;;;;26.73;13.45;;;5.40;99.90;;;;;;6095962;23;20068;-88
2022/01/29 00:35:36;;;;;;;26.75;12.25;;;5.40;99.90;;;;;;6067379;23;20450;-87
2022/01/29 00:38:02;;;;;;;17.15;8.68;;;5.40;99.90;;;;;;6091112;23;20095;-88
2022/01/29 00:40:28;;;;;;;28.27;14.25;;;5.40;99.90;;;;;;6095213;23;20346;-88
2022/01/29 00:42:53;;;;;;;30.70;11.50;;;5.40;99.90;;;;;;6095983;23;20045;-87
2022/01/29 00:45:19;;;;;;;22.45;10.45;;;5.40;99.90;;;;;;6095384;23;20072;-88
2022/01/29 00:47:44;;;;;;;23.23;10.02;;;5.40;99.90;;;;;;6094841;23;20010;-87
2022/01/29 00:50:10;;;;;;;20.05;10.10;;;5.40;99.90;;;;;;6093580;23;20111;-88
2022/01/29 00:52:38;;;;;;;32.47;14.35;;;5.50;99.90;;;;;;6093524;23;20093;-88
2022/01/29 00:55:05;;;;;;;20.27;11.10;;;5.40;99.90;;;;;;6095373;23;20088;-87
2022/01/29 00:57:33;;;;;;;21.80;11.07;;;5.50;99.90;;;;;;6073179;23;20014;-88
2022/01/29 00:59:58;;;;;;;29.90;13.85;;;5.50;99.90;;;;;;6094424;23;20018;-88
2022/01/29 01:02:23;;;;;;;36.10;17.67;;;5.50;99.90;;;;;;6095078;23;20052;-88
2022/01/29 01:04:49;;;;;;;31.60;15.93;;;5.50;99.90;;;;;;6095618;23;20017;-87
2022/01/29 01:07:15;;;;;;;32.88;13.60;;;5.50;99.90;;;;;;6096415;23;20067;-87
2022/01/29 01:09:40;;;;;;;19.20;10.23;;;5.50;99.90;;;;;;6096768;23;20021;-87
2022/01/29 01:12:06;;;;;;;15.38;7.47;;;5.50;99.90;;;;;;6095763;23;20398;-88
2022/01/29 01:14:32;;;;;;;42.10;16.85;;;5.50;99.90;;;;;;6094685;23;20068;-88
2022/01/29 01:16:57;;;;;;;31.92;13.48;;;5.60;99.90;;;;;;6095552;23;20018;-88
2022/01/29 01:19:25;;;;;;;28.02;11.82;;;5.50;99.90;;;;;;6095090;23;20041;-88
2022/01/29 01:21:54;;;;;;;32.05;16.13;;;5.50;99.90;;;;;;6096697;23;20017;-87
2022/01/29 01:24:20;;;;;;;39.67;14.45;;;5.60;99.90;;;;;;6073140;23;20309;-87
2022/01/29 01:26:46;;;;;;;40.92;16.95;;;5.60;99.90;;;;;;6098557;23;20009;-87
2022/01/29 01:29:26;;;;;;;29.55;13.38;;;5.60;99.90;;;;;;6103045;23;20020;-88
2022/01/29 01:31:51;;;;;;;34.95;16.27;;;5.60;99.90;;;;;;6096599;23;20018;-88
2022/01/29 01:34:19;;;;;;;23.48;13.10;;;5.60;99.90;;;;;;6097128;23;20040;-87
2022/01/29 01:37:08;;;;;;;28.90;13.13;;;5.50;99.90;;;;;;6100093;23;20001;-87
2022/01/29 01:39:36;;;;;;;25.45;12.20;;;5.50;99.90;;;;;;6097967;23;20028;-88
2022/01/29 01:42:04;;;;;;;30.65;14.15;;;5.60;99.90;;;;;;6096197;23;20017;-88
2022/01/29 01:44:48;;;;;;;28.80;13.40;;;5.50;99.90;;;;;;6097868;23;20297;-88
2022/01/29 01:47:15;;;;;;;26.38;12.43;;;5.50;99.90;;;;;;6070630;23;20013;-87
2022/01/29 01:49:40;;;;;;;20.73;9.77;;;5.50;99.90;;;;;;6068195;23;20089;-88
2022/01/29 01:52:26;;;;;;;14.97;9.80;;;5.50;99.90;;;;;;6124257;23;20308;-87
2022/01/29 01:54:52;;;;;;;28.75;10.18;;;5.50;99.90;;;;;;6120670;23;20140;-87
2022/01/29 01:57:25;;;;;;;30.58;12.70;;;5.50;99.90;;;;;;6099565;23;20037;-88
2022/01/29 02:00:11;;;;;;;33.25;13.55;;;5.60;99.90;;;;;;6095956;23;20048;-87
2022/01/29 02:03:06;;;;;;;21.92;10.38;;;5.60;99.90;;;;;;6117615;23;20013;-88
2022/01/29 02:05:33;;;;;;;30.83;13.15;;;5.60;99.90;;;;;;6119583;23;20009;-87
2022/01/29 02:08:10;;;;;;;34.88;14.75;;;5.60;99.90;;;;;;6073796;23;20183;-88
2022/01/29 02:10:45;;;;;;;20.38;11.60;;;5.50;99.90;;;;;;6095343;23;20014;-88
2022/01/29 02:13:10;;;;;;;28.83;14.02;;;5.60;99.90;;;;;;6098080;23;20419;-88
2022/01/29 02:15:40;;;;;;;36.55;15.50;;;5.60;99.90;;;;;;6096339;23;20093;-87
2022/01/29 02:18:14;;;;;;;34.80;16.75;;;5.50;99.90;;;;;;6097388;23;20010;-88
2022/01/29 02:20:41;;;;;;;24.92;11.68;;;5.40;99.90;;;;;;6097632;23;20044;-88
2022/01/29 02:23:14;;;;;;;25.45;10.73;;;5.50;99.90;;;;;;6071956;23;20545;-87
2022/01/29 02:25:41;;;;;;;32.80;13.55;;;5.60;99.90;;;;;;6121420;23;20037;-88
2022/01/29 02:28:15;;;;;;;21.83;10.40;;;5.50;99.90;;;;;;6070126;23;20022;-87
2022/01/29 02:30:42;;;;;;;31.80;13.93;;;5.60;99.90;;;;;;6120511;23;20084;-87
2022/01/29 02:33:11;;;;;;;42.33;18.67;;;5.60;99.90;;;;;;6071438;23;20063;-87
2022/01/29 02:35:40;;;;;;;29.92;15.30;;;5.60;99.90;;;;;;6073858;23;20104;-87
2022/01/29 02:38:09;;;;;;;43.05;19.95;;;5.60;99.90;;;;;;6097738;23;20013;-87
2022/01/29 02:40:41;;;;;;;23.58;10.85;;;5.60;99.90;;;;;;6095275;23;20021;-87
2022/01/29 02:43:33;;;;;;;31.45;15.52;;;5.60;99.90;;;;;;6097273;23;20009;-88
2022/01/29 02:46:18;;;;;;;33.92;15.68;;;5.60;99.90;;;;;;6123709;23;20040;-87
2022/01/29 02:48:59;;;;;;;32.33;17.38;;;5.60;99.90;;;;;;6100225;23;20021;-88
2022/01/29 02:51:25;;;;;;;26.48;11.50;;;5.60;99.90;;;;;;6096631;23;20061;-87
2022/01/29 02:53:50;;;;;;;19.40;10.20;;;5.60;99.90;;;;;;6097082;23;20115;-87
2022/01/29 02:56:16;;;;;;;30.42;12.95;;;5.70;99.90;;;;;;6094477;23;20053;-87
2022/01/29 02:58:42;;;;;;;22.42;12.55;;;5.60;99.90;;;;;;6096491;23;20028;-87
2022/01/29 03:01:08;;;;;;;30.23;15.57;;;5.60;99.90;;;;;;6092874;23;20014;-87
2022/01/29 03:03:34;;;;;;;29.55;12.52;;;5.60;99.90;;;;;;6095734;23;20095;-87
2022/01/29 03:06:02;;;;;;;26.27;13.68;;;5.60;99.90;;;;;;6096267;23;20402;-87
2022/01/29 03:08:27;;;;;;;29.38;12.02;;;5.60;99.90;;;;;;6097905;23;20018;-88
2022/01/29 03:10:53;;;;;;;42.08;17.98;;;5.60;99.90;;;;;;6096079;23;20514;-88
2022/01/29 03:13:18;;;;;;;33.55;14.10;;;5.60;99.90;;;;;;6095919;23;20446;-88
2022/01/29 03:15:44;;;;;;;35.22;14.75;;;5.60;99.90;;;;;;6096996;23;20014;-88
2022/01/29 03:18:09;;;;;;;38.78;17.30;;;5.60;99.90;;;;;;6096123;23;20111;-87
2022/01/29 03:20:35;;;;;;;23.90;11.77;;;5.60;99.90;;;;;;6094295;23;20072;-87
2022/01/29 03:23:00;;;;;;;31.98;12.00;;;5.60;99.90;;;;;;6098031;23;20009;-88
2022/01/29 03:25:26;;;;;;;34.55;12.27;;;5.60;99.90;;;;;;6072825;23;20080;-88
2022/01/29 03:27:51;;;;;;;39.15;17.13;;;5.60;99.90;;;;;;6072776;23;20093;-88
2022/01/29 03:30:17;;;;;;;29.02;12.50;;;5.60;99.90;;;;;;6095175;23;20013;-88
2022/01/29 03:32:42;;;;;;;46.80;19.85;;;5.60;99.90;;;;;;6096424;23;20025;-87
2022/01/29 03:35:09;;;;;;;26.55;11.23;;;5.50;99.90;;;;;;6096122;23;20084;-88
2022/01/29 03:37:34;;;;;;;27.75;15.90;;;5.60;99.90;;;;;;6096780;23;20020;-88
2022/01/29 03:40:02;;;;;;;14.70;8.50;;;5.60;99.90;;;;;;6096894;23;20018;-87
2022/01/29 03:42:31;;;;;;;36.53;14.60;;;5.60;99.90;;;;;;6096765;23;20032;-86
2022/01/29 03:44:58;;;;;;;25.52;13.07;;;5.60;99.90;;;;;;6074369;23;20018;-87
2022/01/29 03:47:23;;;;;;;21.02;8.98;;;5.60;99.90;;;;;;6097442;23;20020;-87
2022/01/29 03:49:49;;;;;;;29.83;13.57;;;5.60;99.90;;;;;;6096972;23;20017;-88
2022/01/29 03:52:14;;;;;;;44.08;20.35;;;5.60;99.90;;;;;;6090914;23;20032;-88
2022/01/29 03:54:40;;;;;;;19.95;10.70;;;5.60;99.90;;;;;;6095699;23;20055;-88
2022/01/29 03:57:05;;;;;;;18.92;9.00;;;5.60;99.90;;;;;;6093717;23;20020;-88
2022/01/29 03:59:31;;;;;;;26.33;12.02;;;5.50;99.90;;;;;;6097116;23;20419;-88
2022/01/29 04:01:56;;;;;;;33.80;16.70;;;5.60;99.90;;;;;;6094965;23;19998;-86
2022/01/29 04:04:22;;;;;;;27.80;12.63;;;5.60;99.90;;;;;;6095825;23;20060;-86
2022/01/29 04:06:49;;;;;;;25.58;12.73;;;5.60;99.90;;;;;;6095024;23;20013;-86
2022/01/29 04:09:15;;;;;;;26.25;12.35;;;5.60;99.90;;;;;;6071970;23;20463;-86
2022/01/29 04:11:41;;;;;;;21.85;11.32;;;5.60;99.90;;;;;;6094418;23;20101;-86
2022/01/29 04:14:16;;;;;;;31.83;12.07;;;5.60;99.90;;;;;;6095687;23;20473;-86
2022/01/29 04:16:41;;;;;;;34.17;15.02;;;5.60;99.90;;;;;;6075482;23;20427;-86
2022/01/29 04:19:07;;;;;;;28.50;12.63;;;5.60;99.90;;;;;;6094847;23;20033;-86
2022/01/29 04:21:32;;;;;;;33.08;14.00;;;5.60;99.90;;;;;;6096002;23;20129;-85
2022/01/29 04:23:58;;;;;;;30.42;15.32;;;5.60;99.90;;;;;;6095296;23;20434;-85
2022/01/29 04:26:23;;;;;;;16.50;9.13;;;5.60;99.90;;;;;;6061544;23;20005;-85
2022/01/29 04:28:50;;;;;;;28.08;15.35;;;5.60;99.90;;;;;;6095242;23;20013;-84
2022/01/29 04:31:18;;;;;;;16.83;7.47;;;5.60;99.90;;;;;;6092310;23;20597;-85
2022/01/29 04:33:44;;;;;;;13.93;7.60;;;5.60;99.90;;;;;;6095574;23;20442;-85
2022/01/29 04:36:10;;;;;;;21.35;9.30;;;5.60;99.90;;;;;;6104778;23;20418;-85
2022/01/29 04:38:36;;;;;;;27.30;13.20;;;5.60;99.90;;;;;;6094191;23;20068;-83
2022/01/29 04:41:04;;;;;;;21.23;9.07;;;5.60;99.90;;;;;;6095435;23;20014;-85
2022/01/29 04:43:30;;;;;;;32.85;15.20;;;5.70;99.90;;;;;;6095558;23;20024;-85
2022/01/29 04:45:56;;;;;;;17.90;8.65;;;5.60;99.90;;;;;;6071921;23;20017;-86
2022/01/29 04:48:21;;;;;;;25.45;13.52;;;5.70;99.90;;;;;;6092559;23;20473;-86
2022/01/29 04:50:47;;;;;;;26.50;12.23;;;5.70;99.90;;;;;;6095165;23;20017;-86
2022/01/29 04:53:13;;;;;;;16.48;5.97;;;5.60;99.90;;;;;;6095411;23;20009;-86
2022/01/29 04:55:38;;;;;;;18.05;8.25;;;5.60;99.90;;;;;;6113970;23;20020;-86
2022/01/29 04:58:04;;;;;;;23.83;10.07;;;5.60;99.90;;;;;;6096377;23;20006;-86
2022/01/29 05:00:29;;;;;;;22.85;11.02;;;5.70;99.90;;;;;;6096380;23;20021;-85
2022/01/29 05:02:56;;;;;;;26.73;6.78;;;5.70;99.90;;;;;;6093944;23;20014;-86
2022/01/29 05:05:22;;;;;;;19.35;8.77;;;5.70;99.90;;;;;;6096764;23;20422;-86
2022/01/29 05:07:47;;;;;;;14.70;7.40;;;5.70;99.90;;;;;;6095462;23;20022;-86
2022/01/29 05:10:13;;;;;;;19.17;9.20;;;5.70;99.90;;;;;;6095231;23;20024;-87
2022/01/29 05:12:52;;;;;;;21.10;11.23;;;5.60;99.90;;;;;;6096793;23;20067;-86
2022/01/29 05:15:28;;;;;;;22.33;12.02;;;5.70;99.90;;;;;;6101227;23;20024;-86
2022/01/29 05:28:50;;;;;;;18.67;8.77;;;5.70;99.90;;;;;;6125441;23;20377;-86
2022/01/29 05:31:16;;;;;;;17.05;8.93;;;5.60;99.90;;;;;;6094939;23;20025;-87
2022/01/29 05:33:41;;;;;;;20.27;9.60;;;5.70;99.90;;;;;;6097398;23;20013;-87
2022/01/29 05:36:07;;;;;;;12.55;5.18;;;5.70;99.90;;;;;;6097773;23;20461;-87
2022/01/29 05:38:33;;;;;;;14.77;7.43;;;5.70;99.90;;;;;;6095568;23;20134;-87
2022/01/29 05:40:59;;;;;;;20.00;7.55;;;5.70;99.90;;;;;;6095171;23;20014;-87
2022/01/29 05:43:25;;;;;;;24.88;12.18;;;5.70;99.90;;;;;;6097412;23;20555;-87
2022/01/29 05:45:51;;;;;;;15.30;7.88;;;5.80;99.90;;;;;;6096967;23;20036;-87
2022/01/29 05:48:16;;;;;;;16.45;8.60;;;5.70;99.90;;;;;;6097192;23;20013;-88
2022/01/29 05:50:42;;;;;;;8.48;4.28;;;5.70;99.90;;;;;;6096821;23;20501;-87
2022/01/29 05:53:08;;;;;;;13.85;6.60;;;5.80;99.90;;;;;;6122926;23;20013;-87
2022/01/29 05:55:33;;;;;;;11.45;6.68;;;5.80;99.90;;;;;;6074434;23;20319;-87
2022/01/29 05:57:59;;;;;;;17.77;9.27;;;5.80;99.90;;;;;;6096210;23;20473;-87
2022/01/29 06:00:24;;;;;;;14.50;8.13;;;5.80;99.90;;;;;;6120456;23;20155;-87
2022/01/29 06:03:00;;;;;;;17.33;8.02;;;5.80;99.90;;;;;;6117937;23;20452;-87
2022/01/29 06:05:26;;;;;;;;;;;5.80;99.90;;;;;;6096052;23;20006;-87
2022/01/29 06:07:51;;;;;;;12.20;6.10;;;5.80;99.90;;;;;;6121773;23;19904;-87
2022/01/29 06:10:17;;;;;;;16.42;8.50;;;5.80;99.90;;;;;;6118114;23;20018;-87
2022/01/29 06:12:43;;;;;;;14.05;7.57;;;5.80;99.90;;;;;;6098053;23;20023;-87
2022/01/29 06:15:08;;;;;;;19.08;10.43;;;5.80;99.90;;;;;;6097243;23;20394;-87
2022/01/29 06:17:34;;;;;;;17.20;10.15;;;5.90;99.90;;;;;;6073516;23;20478;-87
2022/01/29 06:20:07;;;;;;;12.07;6.32;;;5.80;99.90;;;;;;6097095;23;20089;-87
2022/01/29 06:22:33;;;;;;;16.63;6.45;;;5.90;99.90;;;;;;6097094;23;20068;-88
2022/01/29 06:24:58;;;;;;;15.63;8.80;;;5.90;99.90;;;;;;6098170;23;20018;-87
2022/01/29 06:27:24;;;;;;;19.80;8.32;;;5.90;99.90;;;;;;6097162;23;20091;-87
2022/01/29 06:29:49;;;;;;;17.58;8.40;;;5.90;99.90;;;;;;6094467;23;20013;-87
2022/01/29 06:32:17;;;;;;;19.17;7.35;;;5.90;99.90;;;;;;6096425;23;20148;-87
2022/01/29 06:34:42;;;;;;;13.43;6.07;;;5.90;99.90;;;;;;6098181;23;20037;-87
2022/01/29 06:37:08;;;;;;;16.35;8.82;;;5.90;99.90;;;;;;6100351;23;20068;-87
2022/01/29 06:39:33;;;;;;;14.98;9.27;;;5.90;99.90;;;;;;6097667;23;20331;-87
2022/01/29 06:41:59;;;;;;;16.38;8.73;;;5.90;99.90;;;;;;6098369;23;20021;-88
2022/01/29 06:44:25;;;;;;;15.13;7.45;;;5.90;99.90;;;;;;6097395;23;20487;-88
2022/01/29 06:46:50;;;;;;;12.20;7.30;;;5.90;99.90;;;;;;6121723;23;20060;-88
2022/01/29 06:49:16;;;;;;;11.35;5.28;;;6.00;99.90;;;;;;6096899;23;20016;-88
2022/01/29 06:51:41;;;;;;;19.52;10.20;;;6.00;99.90;;;;;;6097137;23;20054;-88
2022/01/29 06:54:07;;;;;;;24.33;9.70;;;6.00;99.90;;;;;;6098485;23;20016;-89
2022/01/29 06:56:32;;;;;;;19.40;9.40;;;6.00;99.90;;;;;;6095677;23;20012;-88
2022/01/29 06:58:58;;;;;;;10.77;5.40;;;6.00;99.90;;;;;;6049225;23;20010;-88
2022/01/29 07:01:24;;;;;;;14.05;7.90;;;6.00;99.90;;;;;;6070099;23;20096;-89
2022/01/29 07:03:52;;;;;;;11.65;6.88;;;6.00;99.90;;;;;;6096016;23;20024;-88
2022/01/29 07:06:18;;;;;;;14.77;8.38;;;6.00;99.90;;;;;;6096055;23;20114;-88
2022/01/29 07:08:44;;;;;;;17.40;9.50;;;6.00;99.90;;;;;;6052885;23;20022;-88
2022/01/29 07:11:10;;;;;;;22.00;11.85;;;6.00;99.90;;;;;;6056725;23;20010;-88
2022/01/29 07:13:41;;;;;;;16.45;8.27;;;6.00;99.90;;;;;;6090276;23;20021;-89
2022/01/29 07:16:06;;;;;;;19.83;11.73;;;6.10;99.90;;;;;;6085227;23;20021;-88
2022/01/29 07:18:47;;;;;;;16.85;9.75;;;6.10;99.90;;;;;;6070393;23;20013;-88
2022/01/29 07:21:12;;;;;;;13.68;7.38;;;6.10;99.90;;;;;;6080322;23;20064;-88
2022/01/29 07:23:38;;;;;;;17.27;9.40;;;6.10;99.90;;;;;;6072714;23;20048;-89
2022/01/29 07:26:03;;;;;;;24.38;11.60;;;6.00;99.90;;;;;;6097449;23;20030;-88
2022/01/29 07:28:32;;;;;;;12.00;7.20;;;6.20;99.90;;;;;;6096865;23;20006;-88
2022/01/29 07:32:17;;;;;;;;;;;;;;;;;;;;;
2022/01/29 07:34:44;;;;;;;19.48;8.35;;;6.20;99.90;;;;;;6070912;23;20009;-88
2022/01/29 07:37:45;;;;;;;21.02;11.52;;;6.20;99.90;;;;;;6028087;23;20068;-88
2022/01/29 07:40:40;;;;;;;17.58;8.85;;;6.20;99.90;;;;;;6054731;23;20463;-89
2022/01/29 07:46:06;;;;;;;23.20;13.52;;;6.30;99.90;;;;;;6077237;23;20089;-88
2022/01/29 07:48:36;;;;;;;15.45;6.95;;;6.30;99.90;;;;;;6028691;23;20013;-89
2022/01/29 07:51:14;;;;;;;26.30;15.23;;;6.30;99.90;;;;;;6051653;23;20013;-88
2022/01/29 07:53:39;;;;;;;16.77;9.88;;;6.30;99.90;;;;;;6030242;23;20022;-88
2022/01/29 07:56:26;;;;;;;;;;;;;;;;;;;;;
2022/01/29 07:59:15;;;;;;;18.63;8.63;;;6.30;99.90;;;;;;6069987;23;20190;-88
2022/01/29 08:01:50;;;;;;;16.00;9.43;;;6.30;99.90;;;;;;6039862;23;20079;-88
2022/01/29 08:04:24;;;;;;;16.33;9.15;;;6.40;99.90;;;;;;6041543;23;20010;-88
2022/01/29 08:06:53;;;;;;;21.75;10.45;;;6.30;99.90;;;;;;6047791;23;20039;-89
2022/01/29 08:09:19;;;;;;;20.92;12.20;;;6.30;99.90;;;;;;6047235;23;20513;-89
2022/01/29 08:11:45;;;;;;;14.07;7.53;;;6.40;99.90;;;;;;6082443;23;20021;-89
2022/01/29 08:14:10;;;;;;;23.98;9.27;;;6.40;99.90;;;;;;6096725;23;20017;-89
2022/01/29 08:16:36;;;;;;;22.55;11.10;;;6.50;99.90;;;;;;6096599;23;20013;-88
2022/01/29 08:19:01;;;;;;;18.13;8.65;;;6.50;99.90;;;;;;6096488;23;20407;-89
2022/01/29 08:21:27;;;;;;;19.92;8.45;;;6.50;99.90;;;;;;6096322;23;20024;-89
2022/01/29 08:23:52;;;;;;;22.38;9.85;;;6.50;99.90;;;;;;6095695;23;20028;-88
2022/01/29 08:26:18;;;;;;;21.60;10.23;;;6.50;99.90;;;;;;6096373;23;20009;-89
2022/01/29 08:28:44;;;;;;;17.55;7.32;;;6.50;99.90;;;;;;6073209;23;20401;-88
2022/01/29 08:31:09;;;;;;;15.50;7.80;;;6.60;99.90;;;;;;6070098;23;20080;-89
2022/01/29 08:33:35;;;;;;;21.08;9.75;;;6.50;99.90;;;;;;6094521;23;20013;-89
2022/01/29 08:36:02;;;;;;;11.68;7.35;;;6.60;99.90;;;;;;6093802;23;20014;-89
2022/01/29 08:38:28;;;;;;;26.33;15.13;;;6.60;99.90;;;;;;6092961;23;20013;-89
2022/01/29 08:40:54;;;;;;;16.00;8.68;;;6.60;99.90;;;;;;6095300;23;20022;-89
2022/01/29 08:43:24;;;;;;;21.35;12.70;;;6.60;99.90;;;;;;6038566;23;20024;-89
2022/01/29 08:45:50;;;;;;;16.95;9.73;;;6.70;99.90;;;;;;6071110;23;20014;-89
2022/01/29 08:48:20;;;;;;;22.25;9.88;;;6.70;99.90;;;;;;6119732;23;20084;-88
2022/01/29 08:50:46;;;;;;;26.92;14.77;;;6.80;99.90;;;;;;6056359;23;20085;-89
2022/01/29 08:53:14;;;;;;;18.33;9.10;;;6.70;99.90;;;;;;6095866;23;20045;-89
2022/01/29 08:55:50;;;;;;;15.57;8.68;;;6.70;99.90;;;;;;6093545;23;20302;-89
2022/01/29 08:58:24;;;;;;;13.32;6.95;;;6.70;99.90;;;;;;6053856;23;20069;-89
2022/01/29 09:00:50;;;;;;;22.98;13.20;;;6.80;99.90;;;;;;6075929;23;20275;-89
2022/01/29 09:03:17;;;;;;;23.60;14.23;;;6.80;99.90;;;;;;6097642;23;20009;-88
2022/01/29 09:05:44;;;;;;;19.10;10.80;;;6.80;99.90;;;;;;6048650;23;20014;-89
2022/01/29 09:08:10;;;;;;;20.15;9.82;;;6.80;99.90;;;;;;6044849;23;20013;-89
2022/01/29 09:10:38;;;;;;;23.27;14.35;;;6.90;99.90;;;;;;6038847;23;20448;-89
2022/01/29 09:13:19;;;;;;;18.75;11.23;;;6.90;99.90;;;;;;6046920;23;20110;-90
2022/01/29 09:15:45;;;;;;;22.77;12.80;;;6.90;99.90;;;;;;6059255;23;20037;-89
2022/01/29 09:18:27;;;;;;;20.02;11.70;;;7.00;99.90;;;;;;6072018;23;20017;-90
2022/01/29 09:21:02;;;;;;;19.17;9.93;;;6.90;99.90;;;;;;6070242;23;20049;-90
2022/01/29 09:23:28;;;;;;;23.35;12.82;;;7.00;99.90;;;;;;6021167;23;20455;-90
2022/01/29 09:25:55;;;;;;;16.33;8.25;;;7.00;99.90;;;;;;6086504;23;20014;-89
2022/01/29 09:28:21;;;;;;;20.70;9.70;;;7.00;99.90;;;;;;6095011;23;20237;-89
2022/01/29 09:30:46;;;;;;;13.93;8.75;;;7.00;99.90;;;;;;6095762;23;20089;-89
2022/01/29 09:33:12;;;;;;;16.60;10.10;;;7.00;99.90;;;;;;6096369;23;20013;-90
2022/01/29 09:35:40;;;;;;;22.42;12.18;;;7.00;99.90;;;;;;6095887;23;20045;-90
2022/01/29 09:38:07;;;;;;;22.30;13.48;;;7.00;99.90;;;;;;6097121;23;20010;-88
2022/01/29 09:40:33;;;;;;;11.57;6.68;;;7.00;99.90;;;;;;6071447;23;20019;-88
2022/01/29 09:43:00;;;;;;;21.75;13.30;;;7.00;99.90;;;;;;6097915;23;20013;-88
2022/01/29 09:45:26;;;;;;;17.00;9.60;;;7.10;99.90;;;;;;6097981;23;20032;-88
2022/01/29 09:48:01;;;;;;;21.50;11.80;;;7.10;99.90;;;;;;6095481;23;20065;-88
2022/01/29 09:51:08;;;;;;;19.85;11.38;;;7.20;99.90;;;;;;6072428;23;20354;-89
2022/01/29 09:53:33;;;;;;;18.45;9.07;;;7.20;99.90;;;;;;6121418;23;20009;-88
2022/01/29 09:55:59;;;;;;;15.85;9.15;;;7.20;99.90;;;;;;6096952;23;20442;-88
2022/01/29 09:58:24;;;;;;;11.82;6.05;;;7.20;99.90;;;;;;6057477;23;20133;-88
2022/01/29 10:00:50;;;;;;;19.23;9.88;;;7.20;99.90;;;;;;6096371;23;20342;-88
2022/01/29 10:03:16;;;;;;;20.50;9.52;;;7.30;99.90;;;;;;6098095;23;20487;-88
2022/01/29 10:05:46;;;;;;;20.05;13.10;;;7.30;99.90;;;;;;6118344;23;20016;-88
2022/01/29 10:08:12;;;;;;;20.13;12.05;;;7.30;99.90;;;;;;6074030;23;20338;-88
2022/01/29 10:10:54;;;;;;;16.80;9.32;;;7.30;99.90;;;;;;6072268;23;20005;-88
2022/01/29 10:14:09;;;;;;;20.85;10.93;;;7.40;99.90;;;;;;6102477;23;20025;-88
2022/01/29 10:16:52;;;;;;;12.25;7.95;;;7.40;99.90;;;;;;6145677;23;20006;-88
2022/01/29 10:19:18;;;;;;;13.00;6.65;;;7.40;99.90;;;;;;6075035;23;20009;-87
2022/01/29 10:21:48;;;;;;;20.70;12.65;;;7.30;99.90;;;;;;6108400;23;20014;-88
2022/01/29 10:24:21;;;;;;;15.40;9.43;;;7.40;99.90;;;;;;6098311;23;20013;-87
2022/01/29 10:26:50;;;;;;;14.55;8.77;;;7.50;99.90;;;;;;6073800;23;20479;-87
2022/01/29 10:29:18;;;;;;;22.77;11.13;;;7.40;99.90;;;;;;6094201;23;20014;-88
2022/01/29 10:31:51;;;;;;;14.50;7.25;;;7.50;99.90;;;;;;6072987;23;20036;-88
2022/01/29 10:34:23;;;;;;;16.80;9.88;;;7.50;99.90;;;;;;6098148;23;20009;-88
2022/01/29 10:37:23;;;;;;;23.58;12.05;;;7.50;99.90;;;;;;6073391;23;20068;-89
2022/01/29 10:39:49;;;;;;;21.48;10.95;;;7.60;99.90;;;;;;6072497;23;20017;-89
2022/01/29 10:42:15;;;;;;;16.38;8.38;;;7.50;99.90;;;;;;6121310;23;20016;-89
2022/01/29 10:44:45;;;;;;;16.33;10.18;;;7.60;99.90;;;;;;6081278;23;20006;-89
2022/01/29 10:47:11;;;;;;;18.30;12.23;;;7.60;99.90;;;;;;6071609;23;20020;-88
2022/01/29 10:49:44;;;;;;;17.25;9.38;;;7.60;99.90;;;;;;6071814;23;20025;-89
2022/01/29 10:52:14;;;;;;;16.88;10.88;;;7.60;99.90;;;;;;6048803;23;20002;-89
2022/01/29 10:54:47;;;;;;;15.93;8.35;;;7.70;99.90;;;;;;6060136;23;20052;-89
2022/01/29 10:57:16;;;;;;;16.13;8.57;;;7.70;99.90;;;;;;6071645;23;20016;-89
2022/01/29 10:59:55;;;;;;;15.98;9.68;;;7.70;99.90;;;;;;6056936;23;20025;-89
2022/01/29 11:02:30;;;;;;;20.20;10.00;;;7.70;99.90;;;;;;6057414;23;20017;-88
2022/01/29 11:04:56;;;;;;;13.45;9.95;;;7.70;99.90;;;;;;6048062;23;20362;-88
2022/01/29 11:07:28;;;;;;;12.95;7.70;;;7.70;99.90;;;;;;6083946;23;20110;-88
2022/01/29 11:09:53;;;;;;;14.18;7.55;;;7.70;99.90;;;;;;6065728;23;20010;-88
2022/01/29 11:12:26;;;;;;;18.67;8.57;;;7.70;99.90;;;;;;6089868;23;20093;-88
2022/01/29 11:15:02;;;;;;;18.00;10.32;;;7.70;99.90;;;;;;6097064;23;20433;-88
2022/01/29 11:17:29;;;;;;;12.63;7.15;;;7.80;99.90;;;;;;6048193;23;20017;-88
2022/01/29 11:19:54;;;;;;;14.07;9.13;;;7.80;99.90;;;;;;6095937;23;20473;-88
2022/01/29 11:22:31;;;;;;;10.27;6.07;;;7.80;99.90;;;;;;6096367;23;20010;-88
2022/01/29 11:25:04;;;;;;;13.77;9.15;;;7.80;99.90;;;;;;6059373;23;20418;-88
2022/01/29 11:27:32;;;;;;;12.30;8.20;;;7.90;99.90;;;;;;6118295;23;20485;-88
2022/01/29 11:30:07;;;;;;;14.52;9.43;;;7.90;99.90;;;;;;6094999;23;20017;-88
2022/01/29 11:32:34;;;;;;;13.05;6.85;;;7.80;99.90;;;;;;6096264;23;20022;-88
2022/01/29 11:35:06;;;;;;;20.58;7.20;;;7.90;99.90;;;;;;6096594;23;20399;-87
2022/01/29 11:37:51;;;;;;;8.75;4.97;;;7.90;99.90;;;;;;6121085;23;20013;-88
2022/01/29 11:40:37;;;;;;;14.00;7.27;;;7.90;99.90;;;;;;6045675;23;20013;-88
2022/01/29 11:43:14;;;;;;;13.97;8.20;;;7.90;99.90;;;;;;6072603;23;20013;-88
2022/01/29 11:46:15;;;;;;;11.60;6.82;;;8.00;99.90;;;;;;6120461;23;20009;-88
2022/01/29 11:48:51;;;;;;;10.95;6.80;;;8.00;99.90;;;;;;6043652;23;20126;-89
2022/01/29 11:51:44;;;;;;;14.75;5.57;;;8.10;99.90;;;;;;6061139;23;20312;-88
2022/01/29 11:54:15;;;;;;;8.60;6.22;;;8.00;99.90;;;;;;6058400;23;20101;-89
2022/01/29 11:56:45;;;;;;;9.98;5.82;;;8.10;99.90;;;;;;6081239;23;20021;-88
2022/01/29 11:59:19;;;;;;;7.50;4.45;;;8.10;99.90;;;;;;6044593;23;20037;-89
2022/01/29 12:01:52;;;;;;;7.72;6.00;;;8.10;99.90;;;;;;6090743;23;20041;-90
2022/01/29 12:04:18;;;;;;;8.85;5.35;;;8.10;99.90;;;;;;6089103;23;20013;-89
2022/01/29 12:07:04;;;;;;;8.30;6.22;;;8.20;99.90;;;;;;6057735;23;20056;-90
2022/01/29 12:09:37;;;;;;;6.30;4.30;;;8.20;99.90;;;;;;6114493;23;20086;-90
2022/01/29 12:12:15;;;;;;;7.85;5.28;;;8.20;99.90;;;;;;6093431;23;20447;-90
2022/01/29 12:14:42;;;;;;;8.60;4.78;;;8.30;99.90;;;;;;6078001;23;20091;-89
2022/01/29 12:17:08;;;;;;;6.97;5.10;;;8.40;99.90;;;;;;6075910;23;20025;-90
2022/01/29 12:19:44;;;;;;;5.97;4.35;;;8.40;99.90;;;;;;6059357;23;20013;-89
2022/01/29 12:22:20;;;;;;;6.57;4.32;;;8.50;99.90;;;;;;6090586;23;20013;-89
2022/01/29 12:24:53;;;;;;;7.50;4.40;;;8.50;99.90;;;;;;6117719;23;20032;-89
2022/01/29 12:27:19;;;;;;;5.28;3.88;;;8.50;99.90;;;;;;6095775;23;20016;-89
2022/01/29 12:29:45;;;;;;;3.55;2.65;;;8.50;99.90;;;;;;6057684;23;20093;-89
2022/01/29 12:32:11;;;;;;;5.07;3.97;;;8.50;99.90;;;;;;6087589;23;20036;-89
2022/01/29 12:34:37;;;;;;;3.78;3.15;;;8.50;99.90;;;;;;6091685;23;20411;-89
2022/01/29 12:37:13;;;;;;;4.97;3.35;;;8.50;99.90;;;;;;6093219;23;20018;-89
2022/01/29 12:39:41;;;;;;;3.17;2.38;;;8.40;99.90;;;;;;6117443;23;20022;-89
2022/01/29 12:42:29;;;;;;;5.57;4.72;;;8.50;99.90;;;;;;6090380;23;20081;-89
2022/01/29 12:44:57;;;;;;;4.80;3.35;;;8.50;99.90;;;;;;6091409;23;20001;-89
2022/01/29 12:47:29;;;;;;;6.68;3.67;;;8.50;99.90;;;;;;6070011;23;20450;-89
2022/01/29 12:49:55;;;;;;;5.03;4.15;;;8.60;99.90;;;;;;6088702;23;20085;-89
2022/01/29 12:52:21;;;;;;;2.92;2.17;;;8.50;99.90;;;;;;6116377;23;20100;-89
2022/01/29 12:54:53;;;;;;;3.72;2.58;;;8.60;99.90;;;;;;6093677;23;20099;-89
2022/01/29 12:57:20;;;;;;;3.50;3.00;;;8.60;99.90;;;;;;6091914;23;20544;-88
2022/01/29 12:59:45;;;;;;;5.68;3.75;;;8.60;99.90;;;;;;6095661;23;20027;-89
2022/01/29 13:02:11;;;;;;;4.95;3.25;;;8.60;99.90;;;;;;6095809;23;20206;-89
2022/01/29 13:04:38;;;;;;;2.78;2.53;;;8.60;99.90;;;;;;6081828;23;20105;-89
2022/01/29 13:07:05;;;;;;;5.82;3.85;;;8.60;99.90;;;;;;6095782;23;20341;-89
2022/01/29 13:09:34;;;;;;;4.70;3.47;;;8.70;99.90;;;;;;6095998;23;20010;-89
2022/01/29 13:12:06;;;;;;;8.50;3.50;;;8.60;99.90;;;;;;6095903;23;20029;-88